createdAt,value
2022-08-30T00:01:32.454Z,95.00
2022-08-30T00:04:08.228Z,95.20
2022-08-30T00:06:41.003Z,95.20
2022-08-30T00:09:13.814Z,95.50
2022-08-30T00:11:46.689Z,95.50
2022-08-30T00:14:20.277Z,96.00
2022-08-30T00:16:53.255Z,95.80
2022-08-30T00:19:26.166Z,96.40
2022-08-30T00:21:59.291Z,96.30
2022-08-30T00:24:32.509Z,96.20
2022-08-30T00:27:05.390Z,96.50
2022-08-30T00:29:38.148Z,96.30
2022-08-30T00:32:12.405Z,96.30
2022-08-30T00:34:45.131Z,96.80
2022-08-30T00:37:18.893Z,96.50
2022-08-30T00:39:51.877Z,96.60
2022-08-30T00:42:24.771Z,96.80
2022-08-30T00:44:58.215Z,97.10
2022-08-30T00:47:31.047Z,97.20
2022-08-30T00:50:08.303Z,97.40
2022-08-30T00:52:44.827Z,97.60
2022-08-30T00:55:18.286Z,97.90
2022-08-30T00:57:56.402Z,98.30
2022-08-30T01:00:29.397Z,98.70
2022-08-30T01:03:02.348Z,99.10
2022-08-30T01:05:38.629Z,99.00
2022-08-30T01:08:11.519Z,99.30
2022-08-30T01:10:44.896Z,99.40
2022-08-30T01:13:18.122Z,99.80
2022-08-30T01:15:52.268Z,99.90
2022-08-30T01:18:27.297Z,99.90
2022-08-30T01:21:14.047Z,99.90
2022-08-30T01:23:49.217Z,99.90
2022-08-30T01:26:22.846Z,99.90
2022-08-30T01:29:06.161Z,99.90
2022-08-30T01:31:39.030Z,99.90
2022-08-30T01:34:12.564Z,99.90
2022-08-30T01:36:46.827Z,99.90
2022-08-30T01:39:19.838Z,99.90
2022-08-30T01:41:52.910Z,99.90
2022-08-30T01:44:25.674Z,99.90
2022-08-30T01:46:58.651Z,99.90
2022-08-30T01:49:31.386Z,99.90
2022-08-30T01:52:06.981Z,99.90
2022-08-30T01:54:42.261Z,99.90
2022-08-30T01:57:18.431Z,99.90
2022-08-30T01:59:51.257Z,99.90
2022-08-30T02:02:28.406Z,99.90
2022-08-30T02:05:01.182Z,99.90
2022-08-30T02:07:34.205Z,99.90
2022-08-30T02:10:08.056Z,99.90
2022-08-30T02:12:41.622Z,99.90
2022-08-30T02:15:14.495Z,99.90
2022-08-30T02:17:47.684Z,99.90
2022-08-30T02:20:20.590Z,99.90
2022-08-30T02:22:53.305Z,99.90
2022-08-30T02:25:26.051Z,99.90
2022-08-30T02:27:58.919Z,99.90
2022-08-30T02:30:31.723Z,99.90
2022-08-30T02:33:04.798Z,99.90
2022-08-30T02:35:37.754Z,99.90
2022-08-30T02:38:10.931Z,99.90
2022-08-30T02:40:45.015Z,99.90
2022-08-30T02:43:18.424Z,99.90
2022-08-30T02:45:56.194Z,99.90
2022-08-30T02:48:29.215Z,99.90
2022-08-30T02:51:09.603Z,99.90
2022-08-30T02:53:45.247Z,99.90
2022-08-30T02:56:18.044Z,99.90
2022-08-30T02:58:50.891Z,99.90
2022-08-30T03:01:27.506Z,99.90
2022-08-30T03:04:02.486Z,99.90
2022-08-30T03:06:35.518Z,99.90
2022-08-30T03:09:08.439Z,99.90
2022-08-30T03:11:42.546Z,99.90
2022-08-30T03:14:15.517Z,99.90
2022-08-30T03:16:48.366Z,99.90
2022-08-30T03:19:21.471Z,99.90
2022-08-30T03:21:55.442Z,99.90
2022-08-30T03:24:28.215Z,99.90
2022-08-30T03:27:00.989Z,99.90
2022-08-30T03:29:34.290Z,99.90
2022-08-30T03:32:07.148Z,99.90
2022-08-30T03:34:40.113Z,99.90
2022-08-30T03:37:13.102Z,99.90
2022-08-30T03:39:46.343Z,99.90
2022-08-30T03:42:19.843Z,99.90
2022-08-30T03:44:54.328Z,99.90
2022-08-30T03:47:27.151Z,99.90
2022-08-30T03:50:00.184Z,99.90
2022-08-30T03:52:33.283Z,99.90
2022-08-30T03:55:06.626Z,99.90
2022-08-30T03:57:43.396Z,99.90
2022-08-30T04:00:17.360Z,99.90
2022-08-30T04:02:50.126Z,99.90
2022-08-30T04:05:22.935Z,99.90
2022-08-30T04:07:55.806Z,99.90
2022-08-30T04:10:30.489Z,99.90
2022-08-30T04:13:03.506Z,99.90
2022-08-30T04:15:36.279Z,99.90
2022-08-30T04:18:10.098Z,99.90
2022-08-30T04:20:43.406Z,99.90
2022-08-30T04:23:16.684Z,99.90
2022-08-30T04:25:49.731Z,99.90
2022-08-30T04:28:23.060Z,99.90
2022-08-30T04:30:55.874Z,99.90
2022-08-30T04:33:28.616Z,99.90
2022-08-30T04:36:06.026Z,99.90
2022-08-30T04:38:39.394Z,99.90
2022-08-30T04:41:16.215Z,99.90
2022-08-30T04:43:51.756Z,99.90
2022-08-30T04:46:24.610Z,99.90
2022-08-30T04:48:57.767Z,99.90
2022-08-30T04:51:30.974Z,99.90
2022-08-30T04:54:04.117Z,99.90
2022-08-30T04:56:37.010Z,99.90
2022-08-30T04:59:10.050Z,99.90
2022-08-30T05:01:44.674Z,99.90
2022-08-30T05:04:18.912Z,99.90
2022-08-30T05:06:52.851Z,99.90
2022-08-30T05:09:25.878Z,99.90
2022-08-30T05:11:58.662Z,99.90
2022-08-30T05:14:31.883Z,99.90
2022-08-30T05:17:05.267Z,99.90
2022-08-30T05:19:39.054Z,99.90
2022-08-30T05:22:11.896Z,99.90
2022-08-30T05:24:44.916Z,99.90
2022-08-30T05:27:18.731Z,99.90
2022-08-30T05:29:53.263Z,99.90
2022-08-30T05:32:26.109Z,99.90
2022-08-30T05:34:59.048Z,99.90
2022-08-30T05:37:31.929Z,99.90
2022-08-30T05:40:10.160Z,99.90
2022-08-30T05:42:45.770Z,99.90
2022-08-30T05:45:18.828Z,99.90
2022-08-30T05:47:51.629Z,99.90
2022-08-30T05:50:24.783Z,99.90
2022-08-30T05:52:57.549Z,99.90
2022-08-30T05:55:31.111Z,99.90
2022-08-30T05:58:03.835Z,99.90
2022-08-30T06:00:38.091Z,99.90
2022-08-30T06:03:12.762Z,99.90
2022-08-30T06:08:26.418Z,99.90
2022-08-30T06:10:59.463Z,99.90
2022-08-30T06:13:32.826Z,99.90
2022-08-30T06:16:06.732Z,99.90
2022-08-30T06:18:40.188Z,99.90
2022-08-30T06:21:34.467Z,99.90
2022-08-30T06:24:10.001Z,99.90
2022-08-30T06:26:45.788Z,99.90
2022-08-30T06:29:21.176Z,99.90
2022-08-30T06:31:54.384Z,99.90
2022-08-30T06:34:28.204Z,99.90
2022-08-30T06:37:01.239Z,99.90
2022-08-30T06:39:34.061Z,99.90
2022-08-30T06:42:07.121Z,99.90
2022-08-30T06:44:41.798Z,99.90
2022-08-30T06:47:19.115Z,99.90
2022-08-30T06:49:51.857Z,99.90
2022-08-30T06:52:25.371Z,99.90
2022-08-30T06:54:59.015Z,99.90
2022-08-30T06:57:31.972Z,99.90
2022-08-30T07:00:08.162Z,99.90
2022-08-30T07:02:41.406Z,99.90
2022-08-30T07:05:18.131Z,99.90
2022-08-30T07:07:54.250Z,99.90
2022-08-30T07:10:27.153Z,99.90
2022-08-30T07:13:00.074Z,99.90
2022-08-30T07:15:33.984Z,99.90
2022-08-30T07:18:31.372Z,99.90
2022-08-30T07:21:11.370Z,99.90
2022-08-30T07:23:48.316Z,99.90
2022-08-30T07:26:39.669Z,99.90
2022-08-30T07:29:13.002Z,99.90
2022-08-30T07:31:45.871Z,99.90
2022-08-30T07:34:20.534Z,99.90
2022-08-30T07:36:55.528Z,99.90
2022-08-30T07:39:28.542Z,99.90
2022-08-30T07:42:04.994Z,99.80
2022-08-30T07:44:37.967Z,99.30
2022-08-30T07:47:11.148Z,99.70
2022-08-30T07:49:44.093Z,99.80
2022-08-30T07:52:16.981Z,99.80
2022-08-30T07:54:52.749Z,98.50
2022-08-30T07:57:26.265Z,98.00
2022-08-30T07:59:59.705Z,97.60
2022-08-30T08:02:33.533Z,98.00
2022-08-30T08:05:08.276Z,98.10
2022-08-30T08:07:41.136Z,97.30
2022-08-30T08:10:14.761Z,97.60
2022-08-30T08:12:47.668Z,96.60
2022-08-30T08:15:20.833Z,96.60
2022-08-30T08:17:53.677Z,97.40
2022-08-30T08:20:27.020Z,96.50
2022-08-30T08:22:59.869Z,96.30
2022-08-30T08:25:33.375Z,95.90
2022-08-30T08:28:06.363Z,95.40
2022-08-30T08:30:39.706Z,94.60
2022-08-30T08:33:15.469Z,95.10
2022-08-30T08:35:48.633Z,92.60
2022-08-30T08:38:21.497Z,92.00
2022-08-30T08:41:09.606Z,91.80
2022-08-30T08:43:42.450Z,91.70
2022-08-30T08:46:40.982Z,91.40
2022-08-30T08:49:18.493Z,91.20
2022-08-30T08:52:10.317Z,91.40
2022-08-30T08:54:48.604Z,91.70
2022-08-30T08:57:24.741Z,91.20
2022-08-30T08:59:58.535Z,91.20
2022-08-30T09:02:42.833Z,91.50
2022-08-30T09:05:20.612Z,91.70
2022-08-30T09:08:05.526Z,91.10
2022-08-30T09:10:51.373Z,90.80
2022-08-30T09:13:25.509Z,91.30
2022-08-30T09:16:00.378Z,91.00
2022-08-30T09:18:51.387Z,90.70
2022-08-30T09:21:28.690Z,90.80
2022-08-30T09:24:11.091Z,90.50
2022-08-30T09:26:43.858Z,90.80
2022-08-30T09:29:20.180Z,90.10
2022-08-30T09:34:47.825Z,90.00
2022-08-30T09:37:45.329Z,89.90
2022-08-30T09:40:32.498Z,90.60
2022-08-30T09:43:09.573Z,89.80
2022-08-30T09:45:52.711Z,89.00
2022-08-30T09:48:38.121Z,88.60
2022-08-30T09:51:11.536Z,89.40
2022-08-30T09:54:01.195Z,90.20
2022-08-30T09:57:12.486Z,90.00
2022-08-30T10:00:04.708Z,88.50
2022-08-30T10:02:56.603Z,88.20
2022-08-30T10:06:10.090Z,87.80
2022-08-30T10:09:31.019Z,88.60
2022-08-30T10:12:18.720Z,86.70
2022-08-30T10:15:02.928Z,86.40
2022-08-30T10:18:16.882Z,85.90
2022-08-30T10:21:25.326Z,83.90
2022-08-30T10:24:06.271Z,84.20
2022-08-30T10:30:44.174Z,85.20
2022-08-30T10:33:22.813Z,82.20
2022-08-30T10:36:01.784Z,83.20
2022-08-30T10:38:37.751Z,83.00
2022-08-30T10:41:28.426Z,82.70
2022-08-30T10:44:16.059Z,81.10
2022-08-30T10:47:23.033Z,81.40
2022-08-30T10:50:20.418Z,82.00
2022-08-30T10:53:09.055Z,81.80
2022-08-30T10:55:51.997Z,80.10
2022-08-30T10:58:25.086Z,78.30
2022-08-30T11:01:28.654Z,77.80
2022-08-30T11:04:19.796Z,77.80
2022-08-30T11:07:01.306Z,79.10
2022-08-30T11:10:09.762Z,77.00
2022-08-30T11:12:55.712Z,77.00
2022-08-30T11:15:32.405Z,76.80
2022-08-30T11:18:13.152Z,77.10
2022-08-30T11:20:52.391Z,76.00
2022-08-30T11:23:32.776Z,75.90
2022-08-30T11:26:12.188Z,76.90
2022-08-30T11:29:02.294Z,75.50
2022-08-30T11:31:40.657Z,72.90
2022-08-30T11:34:46.366Z,72.00
2022-08-30T11:37:42.237Z,75.40
2022-08-30T11:40:24.305Z,73.20
2022-08-30T11:43:41.523Z,71.30
2022-08-30T11:46:27.648Z,69.80
2022-08-30T11:49:15.685Z,69.20
2022-08-30T11:52:27.083Z,69.10
2022-08-30T11:55:09.686Z,71.10
2022-08-30T11:58:07.926Z,70.10
2022-08-30T12:00:51.454Z,70.80
2022-08-30T12:03:35.292Z,71.00
2022-08-30T12:06:10.311Z,72.90
2022-08-30T12:08:47.514Z,72.90
2022-08-30T12:11:20.689Z,72.20
2022-08-30T12:13:55.331Z,71.70
2022-08-30T12:17:01.440Z,73.00
2022-08-30T12:19:34.329Z,71.40
2022-08-30T12:22:07.790Z,73.60
2022-08-30T12:24:46.896Z,69.80
2022-08-30T12:27:32.397Z,69.30
2022-08-30T12:30:08.236Z,69.20
2022-08-30T12:32:50.558Z,66.50
2022-08-30T12:38:05.235Z,63.30
2022-08-30T12:43:27.284Z,63.90
2022-08-30T12:46:11.530Z,61.30
2022-08-30T12:48:45.443Z,60.30
2022-08-30T12:51:30.585Z,60.90
2022-08-30T12:54:07.774Z,59.70
2022-08-30T12:56:50.480Z,63.60
2022-08-30T13:00:02.203Z,59.90
2022-08-30T13:02:56.393Z,57.20
2022-08-30T13:05:45.584Z,58.20
2022-08-30T13:08:37.160Z,58.70
2022-08-30T13:11:24.804Z,60.10
2022-08-30T13:14:29.663Z,60.30
2022-08-30T13:17:21.087Z,59.60
2022-08-30T13:20:47.763Z,62.60
2022-08-30T13:23:26.363Z,59.10
2022-08-30T13:25:59.274Z,58.50
2022-08-30T13:28:52.755Z,58.60
2022-08-30T13:31:28.135Z,58.30
2022-08-30T13:34:04.870Z,58.60
2022-08-30T13:36:44.816Z,58.70
2022-08-30T13:39:18.004Z,58.80
2022-08-30T13:41:55.069Z,61.50
2022-08-30T13:44:48.192Z,59.00
2022-08-30T13:47:37.316Z,59.50
2022-08-30T13:50:10.383Z,60.30
2022-08-30T13:52:43.310Z,59.00
2022-08-30T13:55:16.358Z,59.60
2022-08-30T13:57:57.698Z,61.90
2022-08-30T14:00:36.181Z,59.30
2022-08-30T14:03:36.789Z,59.00
2022-08-30T14:06:31.708Z,61.30
2022-08-30T14:09:04.919Z,58.00
2022-08-30T14:11:38.515Z,58.00
2022-08-30T14:14:17.208Z,58.50
2022-08-30T14:16:56.363Z,58.90
2022-08-30T14:19:29.938Z,59.40
2022-08-30T14:22:03.096Z,62.20
2022-08-30T14:24:36.097Z,62.70
2022-08-30T14:27:09.002Z,60.50
2022-08-30T14:29:42.893Z,62.20
2022-08-30T14:32:17.016Z,61.50
2022-08-30T14:34:50.780Z,61.70
2022-08-30T14:37:24.067Z,61.10
2022-08-30T14:39:58.157Z,60.30
2022-08-30T14:42:31.049Z,59.90
2022-08-30T14:45:04.702Z,59.40
2022-08-30T14:47:37.539Z,59.50
2022-08-30T14:50:11.085Z,59.30
2022-08-30T14:52:45.325Z,58.80
2022-08-30T14:55:18.426Z,58.90
2022-08-30T14:57:51.368Z,59.00
2022-08-30T15:00:25.666Z,58.60
2022-08-30T15:02:58.689Z,59.20
2022-08-30T15:05:32.506Z,60.20
2022-08-30T15:08:05.576Z,59.50
2022-08-30T15:10:40.602Z,59.40
2022-08-30T15:13:15.734Z,59.20
2022-08-30T15:15:48.762Z,58.40
2022-08-30T15:18:23.233Z,58.30
2022-08-30T15:20:57.209Z,58.80
2022-08-30T15:23:30.005Z,58.50
2022-08-30T15:26:03.419Z,58.40
2022-08-30T15:28:36.253Z,58.80
2022-08-30T15:31:09.644Z,59.30
2022-08-30T15:33:44.348Z,59.60
2022-08-30T15:36:17.641Z,59.50
2022-08-30T15:38:55.281Z,58.90
2022-08-30T15:41:29.091Z,58.50
2022-08-30T15:44:03.581Z,59.40
2022-08-30T15:46:39.316Z,60.10
2022-08-30T15:49:24.583Z,61.90
2022-08-30T15:52:01.619Z,63.70
2022-08-30T15:54:34.410Z,61.40
2022-08-30T15:57:07.179Z,61.80
2022-08-30T15:59:40.077Z,62.90
2022-08-30T16:02:13.252Z,63.70
2022-08-30T16:04:46.421Z,61.90
2022-08-30T16:07:19.506Z,62.20
2022-08-30T16:09:52.914Z,64.70
2022-08-30T16:12:26.013Z,64.70
2022-08-30T16:14:59.153Z,66.30
2022-08-30T16:17:32.249Z,69.50
2022-08-30T16:20:05.682Z,71.40
2022-08-30T16:22:39.282Z,71.80
2022-08-30T16:25:18.857Z,72.20
2022-08-30T16:27:53.265Z,72.60
2022-08-30T16:30:26.294Z,74.00
2022-08-30T16:32:59.327Z,74.80
2022-08-30T16:35:32.138Z,75.30
2022-08-30T16:38:05.195Z,76.40
2022-08-30T16:40:38.069Z,77.10
2022-08-30T16:43:11.178Z,79.50
2022-08-30T16:45:44.752Z,79.90
2022-08-30T16:48:18.775Z,79.40
2022-08-30T16:50:51.615Z,80.30
2022-08-30T16:53:25.562Z,80.10
2022-08-30T16:55:58.358Z,80.90
2022-08-30T16:58:31.324Z,81.10
2022-08-30T17:01:05.170Z,81.50
2022-08-30T17:03:38.533Z,82.40
2022-08-30T17:06:11.738Z,81.20
2022-08-30T17:08:45.309Z,80.50
2022-08-30T17:11:20.331Z,78.90
2022-08-30T17:13:53.526Z,80.00
2022-08-30T17:16:27.651Z,79.50
2022-08-30T17:19:01.748Z,79.10
2022-08-30T17:21:35.373Z,78.40
2022-08-30T17:24:08.918Z,78.30
2022-08-30T17:26:41.928Z,79.30
2022-08-30T17:29:15.825Z,79.30
2022-08-30T17:31:50.815Z,79.00
2022-08-30T17:34:26.487Z,78.30
2022-08-30T17:36:59.947Z,78.50
2022-08-30T17:39:33.237Z,79.30
2022-08-30T17:42:06.451Z,78.90
2022-08-30T17:44:42.161Z,79.30
2022-08-30T17:47:15.482Z,80.00
2022-08-30T17:49:48.631Z,80.20
2022-08-30T17:52:21.424Z,80.10
2022-08-30T17:54:54.875Z,80.50
2022-08-30T17:57:29.583Z,80.80
2022-08-30T18:00:06.957Z,81.10
2022-08-30T18:02:41.515Z,81.10
2022-08-30T18:05:14.633Z,81.40
2022-08-30T18:07:47.790Z,81.80
2022-08-30T18:10:26.742Z,83.00
2022-08-30T18:13:05.357Z,82.00
2022-08-30T18:15:39.565Z,85.50
2022-08-30T18:18:17.129Z,85.90
2022-08-30T18:20:50.245Z,84.90
2022-08-30T18:23:24.086Z,86.30
2022-08-30T18:26:02.769Z,84.60
2022-08-30T18:28:35.618Z,85.20
2022-08-30T18:31:09.468Z,84.90
2022-08-30T18:33:42.620Z,85.70
2022-08-30T18:36:16.964Z,88.00
2022-08-30T18:38:51.287Z,89.50
2022-08-30T18:41:26.871Z,88.00
2022-08-30T18:46:57.104Z,90.00
2022-08-30T18:49:32.372Z,91.50
2022-08-30T18:52:08.229Z,93.70
2022-08-30T18:54:51.712Z,92.30
2022-08-30T18:57:26.175Z,92.40
2022-08-30T18:59:59.040Z,93.60
2022-08-30T19:02:32.609Z,92.50
2022-08-30T19:05:06.025Z,91.80
2022-08-30T19:07:40.898Z,91.00
2022-08-30T19:10:16.555Z,92.10
2022-08-30T19:12:54.311Z,91.90
2022-08-30T19:15:27.451Z,89.90
2022-08-30T19:18:01.861Z,90.10
2022-08-30T19:20:46.478Z,90.00
2022-08-30T19:23:21.249Z,89.30
2022-08-30T19:25:56.253Z,90.10
2022-08-30T19:28:31.768Z,90.20
2022-08-30T19:31:06.406Z,89.60
2022-08-30T19:33:39.486Z,90.60
2022-08-30T19:36:12.426Z,90.40
2022-08-30T19:38:45.323Z,90.30
2022-08-30T19:41:18.127Z,91.00
2022-08-30T19:43:51.788Z,91.00
2022-08-30T19:46:24.708Z,91.20
2022-08-30T19:48:58.383Z,91.00
2022-08-30T19:51:31.537Z,91.10
2022-08-30T19:54:06.621Z,91.40
2022-08-30T19:56:40.607Z,91.20
2022-08-30T19:59:13.513Z,92.00
2022-08-30T20:01:46.389Z,92.10
2022-08-30T20:04:19.356Z,91.90
2022-08-30T20:06:52.447Z,91.40
2022-08-30T20:09:25.497Z,92.10
2022-08-30T20:11:58.841Z,92.80
2022-08-30T20:14:32.726Z,93.20
2022-08-30T20:17:06.074Z,92.70
2022-08-30T20:19:46.096Z,92.40
2022-08-30T20:22:19.186Z,93.30
2022-08-30T20:24:29.270Z,89.60
2022-08-30T20:24:52.159Z,93.40
2022-08-30T20:27:41.812Z,92.90
2022-08-30T20:30:17.126Z,93.10
2022-08-30T20:32:52.452Z,93.50
2022-08-30T20:35:25.465Z,93.70
2022-08-30T20:38:01.160Z,94.00
2022-08-30T20:40:36.113Z,93.40
2022-08-30T20:43:08.954Z,94.30
2022-08-30T20:45:42.025Z,94.20
2022-08-30T20:48:15.805Z,93.80
2022-08-30T20:50:49.397Z,94.30
2022-08-30T20:53:22.190Z,95.60
2022-08-30T20:55:55.612Z,95.00
2022-08-30T20:58:28.711Z,95.70
2022-08-30T21:01:01.724Z,96.20
2022-08-30T21:03:34.970Z,96.60
2022-08-30T21:06:08.223Z,96.20
2022-08-30T21:08:41.131Z,95.90
2022-08-30T21:11:14.339Z,96.60
2022-08-30T21:13:48.382Z,97.20
2022-08-30T21:16:22.125Z,96.40
2022-08-30T21:18:55.691Z,96.20
2022-08-30T21:21:30.460Z,95.90
2022-08-30T21:24:10.037Z,97.00
2022-08-30T21:26:43.333Z,96.20
2022-08-30T21:29:16.247Z,96.90
2022-08-30T21:31:49.970Z,97.10
2022-08-30T21:34:22.987Z,96.90
2022-08-30T21:36:56.038Z,97.20
2022-08-30T21:39:29.548Z,97.50
2022-08-30T21:42:02.691Z,97.90
2022-08-30T21:44:35.423Z,97.60
2022-08-30T21:47:08.786Z,98.00
2022-08-30T21:49:41.611Z,98.10
2022-08-30T21:52:14.579Z,98.90
2022-08-30T21:54:48.478Z,99.10
2022-08-30T21:57:21.566Z,99.50
2022-08-30T21:59:54.486Z,99.70
2022-08-30T22:02:28.892Z,99.90
2022-08-30T22:05:01.907Z,99.90
2022-08-30T22:07:37.288Z,99.90
2022-08-30T22:10:12.666Z,99.90
2022-08-30T22:12:45.566Z,99.90
2022-08-30T22:15:18.364Z,99.90
2022-08-30T22:17:51.241Z,99.90
2022-08-30T22:20:24.082Z,99.90
2022-08-30T22:22:57.069Z,99.90
2022-08-30T22:25:31.003Z,99.90
2022-08-30T22:28:04.366Z,99.90
2022-08-30T22:30:37.225Z,99.90
2022-08-30T22:33:09.945Z,99.90
2022-08-30T22:35:43.118Z,99.90
2022-08-30T22:38:15.937Z,99.90
2022-08-30T22:40:50.882Z,99.90
2022-08-30T22:43:23.709Z,99.90
2022-08-30T22:45:57.813Z,99.90
2022-08-30T22:48:30.743Z,99.90
2022-08-30T22:51:03.723Z,99.90
2022-08-30T22:53:36.863Z,99.90
2022-08-30T22:56:15.887Z,99.90
2022-08-30T22:58:49.485Z,99.90
2022-08-30T23:01:31.573Z,99.90
2022-08-30T23:04:07.061Z,99.90
2022-08-30T23:06:39.975Z,99.90
2022-08-30T23:09:13.030Z,99.90
2022-08-30T23:11:46.048Z,99.90
2022-08-30T23:14:18.946Z,99.90
2022-08-30T23:16:51.900Z,99.90
2022-08-30T23:19:26.729Z,99.90
2022-08-30T23:21:59.524Z,99.90
2022-08-30T23:24:51.134Z,99.90
2022-08-30T23:27:42.826Z,99.90
2022-08-30T23:30:34.314Z,99.90
2022-08-30T23:33:25.903Z,99.90
2022-08-30T23:36:17.465Z,99.90
2022-08-30T23:39:08.731Z,99.90
2022-08-30T23:42:00.258Z,99.90
2022-08-30T23:44:51.887Z,99.90
2022-08-30T23:47:43.570Z,99.90
2022-08-30T23:50:35.123Z,99.90
2022-08-30T23:53:26.838Z,99.90
2022-08-30T23:56:18.957Z,99.90
2022-08-30T23:59:10.595Z,99.90
